sensor_id;sensor_type;location;lat;lon;timestamp;P1;durP1;ratioP1;P2;durP2;ratioP2
60060;SDS011;45933;51.336;12.612;2024-03-06T00:02:09;24.77;;;14.00;;
60060;SDS011;45933;51.336;12.612;2024-03-06T00:04:35;23.00;;;13.47;;
60060;SDS011;45933;51.336;12.612;2024-03-06T00:07:00;21.50;;;14.57;;
60060;SDS011;45933;51.336;12.612;2024-03-06T00:09:26;21.53;;;14.37;;
60060;SDS011;45933;51.336;12.612;2024-03-06T00:11:52;22.40;;;14.63;;
60060;SDS011;45933;51.336;12.612;2024-03-06T00:14:18;21.67;;;14.00;;
60060;SDS011;45933;51.336;12.612;2024-03-06T00:16:44;19.80;;;13.97;;
60060;SDS011;45933;51.336;12.612;2024-03-06T00:19:09;24.93;;;15.07;;
60060;SDS011;45933;51.336;12.612;2024-03-06T00:21:35;22.17;;;14.40;;
60060;SDS011;45933;51.336;12.612;2024-03-06T00:24:01;26.40;;;14.83;;
60060;SDS011;45933;51.336;12.612;2024-03-06T00:26:27;25.27;;;15.07;;
60060;SDS011;45933;51.336;12.612;2024-03-06T00:28:52;26.67;;;15.77;;
60060;SDS011;45933;51.336;12.612;2024-03-06T00:31:17;23.17;;;15.83;;
60060;SDS011;45933;51.336;12.612;2024-03-06T00:33:43;24.10;;;15.63;;
60060;SDS011;45933;51.336;12.612;2024-03-06T00:36:08;29.57;;;16.47;;
60060;SDS011;45933;51.336;12.612;2024-03-06T00:38:33;25.10;;;16.10;;
60060;SDS011;45933;51.336;12.612;2024-03-06T00:40:59;27.83;;;17.57;;
60060;SDS011;45933;51.336;12.612;2024-03-06T00:43:24;30.63;;;17.60;;
60060;SDS011;45933;51.336;12.612;2024-03-06T00:45:49;26.90;;;16.43;;
60060;SDS011;45933;51.336;12.612;2024-03-06T00:48:15;28.03;;;17.20;;
60060;SDS011;45933;51.336;12.612;2024-03-06T00:50:41;27.50;;;16.33;;
60060;SDS011;45933;51.336;12.612;2024-03-06T00:53:06;34.17;;;17.50;;
60060;SDS011;45933;51.336;12.612;2024-03-06T00:55:31;26.60;;;17.40;;
60060;SDS011;45933;51.336;12.612;2024-03-06T00:57:57;28.43;;;17.43;;
60060;SDS011;45933;51.336;12.612;2024-03-06T01:00:22;26.33;;;16.67;;
60060;SDS011;45933;51.336;12.612;2024-03-06T01:02:47;24.47;;;16.63;;
60060;SDS011;45933;51.336;12.612;2024-03-06T01:05:13;25.37;;;16.10;;
60060;SDS011;45933;51.336;12.612;2024-03-06T01:07:38;23.43;;;16.17;;
60060;SDS011;45933;51.336;12.612;2024-03-06T01:10:04;27.00;;;17.07;;
60060;SDS011;45933;51.336;12.612;2024-03-06T01:12:33;25.83;;;17.07;;
60060;SDS011;45933;51.336;12.612;2024-03-06T01:14:58;24.90;;;16.43;;
60060;SDS011;45933;51.336;12.612;2024-03-06T01:17:24;28.77;;;17.87;;
60060;SDS011;45933;51.336;12.612;2024-03-06T01:19:49;27.43;;;16.73;;
60060;SDS011;45933;51.336;12.612;2024-03-06T01:22:15;28.13;;;17.10;;
60060;SDS011;45933;51.336;12.612;2024-03-06T01:24:40;31.07;;;18.00;;
60060;SDS011;45933;51.336;12.612;2024-03-06T01:27:06;31.57;;;18.00;;
60060;SDS011;45933;51.336;12.612;2024-03-06T01:29:31;28.87;;;17.83;;
60060;SDS011;45933;51.336;12.612;2024-03-06T01:31:57;31.77;;;19.10;;
60060;SDS011;45933;51.336;12.612;2024-03-06T01:34:23;32.97;;;18.40;;
60060;SDS011;45933;51.336;12.612;2024-03-06T01:36:48;30.90;;;19.77;;
60060;SDS011;45933;51.336;12.612;2024-03-06T01:39:14;32.40;;;19.13;;
60060;SDS011;45933;51.336;12.612;2024-03-06T01:41:46;29.67;;;19.00;;
60060;SDS011;45933;51.336;12.612;2024-03-06T01:44:12;33.40;;;20.00;;
60060;SDS011;45933;51.336;12.612;2024-03-06T01:46:38;34.80;;;19.73;;
60060;SDS011;45933;51.336;12.612;2024-03-06T01:49:04;35.30;;;20.10;;
60060;SDS011;45933;51.336;12.612;2024-03-06T01:51:29;30.93;;;19.30;;
60060;SDS011;45933;51.336;12.612;2024-03-06T01:53:55;30.97;;;19.73;;
60060;SDS011;45933;51.336;12.612;2024-03-06T01:56:22;32.40;;;20.13;;
60060;SDS011;45933;51.336;12.612;2024-03-06T01:58:48;28.70;;;19.03;;
60060;SDS011;45933;51.336;12.612;2024-03-06T02:01:14;32.20;;;18.87;;
60060;SDS011;45933;51.336;12.612;2024-03-06T02:03:41;32.03;;;18.13;;
60060;SDS011;45933;51.336;12.612;2024-03-06T02:06:07;29.30;;;18.67;;
60060;SDS011;45933;51.336;12.612;2024-03-06T02:08:35;25.07;;;17.67;;
60060;SDS011;45933;51.336;12.612;2024-03-06T02:11:00;29.57;;;17.43;;
60060;SDS011;45933;51.336;12.612;2024-03-06T02:13:28;26.37;;;16.67;;
60060;SDS011;45933;51.336;12.612;2024-03-06T02:15:54;30.53;;;17.43;;
60060;SDS011;45933;51.336;12.612;2024-03-06T02:18:20;26.93;;;16.60;;
60060;SDS011;45933;51.336;12.612;2024-03-06T02:20:46;29.70;;;16.63;;
60060;SDS011;45933;51.336;12.612;2024-03-06T02:23:12;27.83;;;18.33;;
60060;SDS011;45933;51.336;12.612;2024-03-06T02:25:38;27.43;;;17.97;;
60060;SDS011;45933;51.336;12.612;2024-03-06T02:28:03;30.20;;;18.63;;
60060;SDS011;45933;51.336;12.612;2024-03-06T02:30:31;29.50;;;17.47;;
60060;SDS011;45933;51.336;12.612;2024-03-06T02:33:01;28.73;;;17.40;;
60060;SDS011;45933;51.336;12.612;2024-03-06T02:35:26;26.90;;;17.13;;
60060;SDS011;45933;51.336;12.612;2024-03-06T02:37:52;28.47;;;17.87;;
60060;SDS011;45933;51.336;12.612;2024-03-06T02:40:17;33.80;;;18.80;;
60060;SDS011;45933;51.336;12.612;2024-03-06T02:42:42;31.87;;;19.40;;
60060;SDS011;45933;51.336;12.612;2024-03-06T02:45:07;32.20;;;19.07;;
60060;SDS011;45933;51.336;12.612;2024-03-06T02:47:33;30.80;;;18.90;;
60060;SDS011;45933;51.336;12.612;2024-03-06T02:49:59;29.97;;;19.03;;
60060;SDS011;45933;51.336;12.612;2024-03-06T02:52:24;31.07;;;19.80;;
60060;SDS011;45933;51.336;12.612;2024-03-06T02:54:49;29.07;;;19.03;;
60060;SDS011;45933;51.336;12.612;2024-03-06T02:57:15;29.83;;;18.53;;
60060;SDS011;45933;51.336;12.612;2024-03-06T02:59:40;33.07;;;18.97;;
60060;SDS011;45933;51.336;12.612;2024-03-06T03:02:05;29.60;;;18.57;;
60060;SDS011;45933;51.336;12.612;2024-03-06T03:04:31;29.10;;;18.57;;
60060;SDS011;45933;51.336;12.612;2024-03-06T03:06:56;28.43;;;18.33;;
60060;SDS011;45933;51.336;12.612;2024-03-06T03:09:22;32.03;;;18.63;;
60060;SDS011;45933;51.336;12.612;2024-03-06T03:11:48;29.27;;;18.07;;
60060;SDS011;45933;51.336;12.612;2024-03-06T03:14:13;29.40;;;18.97;;
60060;SDS011;45933;51.336;12.612;2024-03-06T03:16:38;28.10;;;17.30;;
60060;SDS011;45933;51.336;12.612;2024-03-06T03:19:04;27.73;;;18.40;;
60060;SDS011;45933;51.336;12.612;2024-03-06T03:21:29;32.27;;;17.60;;
60060;SDS011;45933;51.336;12.612;2024-03-06T03:23:55;27.83;;;18.57;;
60060;SDS011;45933;51.336;12.612;2024-03-06T03:26:20;27.43;;;17.70;;
60060;SDS011;45933;51.336;12.612;2024-03-06T03:28:45;30.33;;;17.90;;
60060;SDS011;45933;51.336;12.612;2024-03-06T03:31:11;33.67;;;18.60;;
60060;SDS011;45933;51.336;12.612;2024-03-06T03:33:39;33.30;;;19.60;;
60060;SDS011;45933;51.336;12.612;2024-03-06T03:36:06;26.73;;;17.87;;
60060;SDS011;45933;51.336;12.612;2024-03-06T03:38:32;29.23;;;18.83;;
60060;SDS011;45933;51.336;12.612;2024-03-06T03:41:00;30.10;;;19.37;;
60060;SDS011;45933;51.336;12.612;2024-03-06T03:43:26;31.93;;;19.30;;
60060;SDS011;45933;51.336;12.612;2024-03-06T03:45:51;34.77;;;19.17;;
60060;SDS011;45933;51.336;12.612;2024-03-06T03:48:16;32.13;;;19.37;;
60060;SDS011;45933;51.336;12.612;2024-03-06T03:50:41;34.27;;;20.70;;
60060;SDS011;45933;51.336;12.612;2024-03-06T03:53:07;32.63;;;20.73;;
60060;SDS011;45933;51.336;12.612;2024-03-06T03:55:32;28.63;;;19.00;;
60060;SDS011;45933;51.336;12.612;2024-03-06T03:57:58;36.43;;;21.70;;
60060;SDS011;45933;51.336;12.612;2024-03-06T04:00:23;32.10;;;20.43;;
60060;SDS011;45933;51.336;12.612;2024-03-06T04:02:49;34.90;;;21.33;;
60060;SDS011;45933;51.336;12.612;2024-03-06T04:05:14;34.73;;;21.70;;
60060;SDS011;45933;51.336;12.612;2024-03-06T04:07:39;35.00;;;21.27;;
60060;SDS011;45933;51.336;12.612;2024-03-06T04:10:05;36.70;;;21.43;;
60060;SDS011;45933;51.336;12.612;2024-03-06T04:12:31;30.53;;;20.73;;
60060;SDS011;45933;51.336;12.612;2024-03-06T04:14:56;31.30;;;20.20;;
60060;SDS011;45933;51.336;12.612;2024-03-06T04:17:22;33.87;;;20.43;;
60060;SDS011;45933;51.336;12.612;2024-03-06T04:19:47;33.93;;;20.23;;
60060;SDS011;45933;51.336;12.612;2024-03-06T04:22:13;34.23;;;20.33;;
60060;SDS011;45933;51.336;12.612;2024-03-06T04:24:40;31.93;;;21.53;;
60060;SDS011;45933;51.336;12.612;2024-03-06T04:27:07;38.03;;;22.20;;
60060;SDS011;45933;51.336;12.612;2024-03-06T04:29:33;35.40;;;21.37;;
60060;SDS011;45933;51.336;12.612;2024-03-06T04:31:58;33.87;;;21.50;;
60060;SDS011;45933;51.336;12.612;2024-03-06T04:34:23;32.90;;;21.37;;
60060;SDS011;45933;51.336;12.612;2024-03-06T04:36:48;35.70;;;22.77;;
60060;SDS011;45933;51.336;12.612;2024-03-06T04:39:13;35.23;;;22.83;;
60060;SDS011;45933;51.336;12.612;2024-03-06T04:41:39;35.07;;;21.77;;
60060;SDS011;45933;51.336;12.612;2024-03-06T04:44:05;34.90;;;22.07;;
60060;SDS011;45933;51.336;12.612;2024-03-06T04:46:30;38.33;;;23.13;;
60060;SDS011;45933;51.336;12.612;2024-03-06T04:48:55;35.10;;;22.57;;
60060;SDS011;45933;51.336;12.612;2024-03-06T04:51:20;37.93;;;23.60;;
60060;SDS011;45933;51.336;12.612;2024-03-06T04:53:46;36.30;;;22.63;;
60060;SDS011;45933;51.336;12.612;2024-03-06T04:56:11;40.77;;;22.63;;
60060;SDS011;45933;51.336;12.612;2024-03-06T04:58:37;41.40;;;23.13;;
60060;SDS011;45933;51.336;12.612;2024-03-06T05:01:03;35.23;;;22.60;;
60060;SDS011;45933;51.336;12.612;2024-03-06T05:03:28;34.67;;;22.67;;
60060;SDS011;45933;51.336;12.612;2024-03-06T05:05:54;37.13;;;23.13;;
60060;SDS011;45933;51.336;12.612;2024-03-06T05:08:19;40.33;;;23.10;;
60060;SDS011;45933;51.336;12.612;2024-03-06T05:10:45;35.53;;;22.20;;
60060;SDS011;45933;51.336;12.612;2024-03-06T05:13:10;38.93;;;23.37;;
60060;SDS011;45933;51.336;12.612;2024-03-06T05:15:36;35.83;;;22.33;;
60060;SDS011;45933;51.336;12.612;2024-03-06T05:18:01;39.43;;;23.30;;
60060;SDS011;45933;51.336;12.612;2024-03-06T05:20:27;34.47;;;22.67;;
60060;SDS011;45933;51.336;12.612;2024-03-06T05:22:55;33.67;;;21.50;;
60060;SDS011;45933;51.336;12.612;2024-03-06T05:25:21;35.83;;;21.67;;
60060;SDS011;45933;51.336;12.612;2024-03-06T05:27:46;37.97;;;22.33;;
60060;SDS011;45933;51.336;12.612;2024-03-06T05:30:11;36.13;;;20.60;;
60060;SDS011;45933;51.336;12.612;2024-03-06T05:32:37;36.20;;;21.80;;
60060;SDS011;45933;51.336;12.612;2024-03-06T05:35:02;35.80;;;22.43;;
60060;SDS011;45933;51.336;12.612;2024-03-06T05:37:28;36.40;;;21.87;;
60060;SDS011;45933;51.336;12.612;2024-03-06T05:39:54;32.60;;;21.20;;
60060;SDS011;45933;51.336;12.612;2024-03-06T05:42:19;37.33;;;20.50;;
60060;SDS011;45933;51.336;12.612;2024-03-06T05:44:44;33.90;;;22.33;;
60060;SDS011;45933;51.336;12.612;2024-03-06T05:47:09;35.93;;;22.13;;
60060;SDS011;45933;51.336;12.612;2024-03-06T05:49:35;30.27;;;20.67;;
60060;SDS011;45933;51.336;12.612;2024-03-06T05:52:00;37.00;;;22.23;;
60060;SDS011;45933;51.336;12.612;2024-03-06T05:54:25;34.20;;;21.60;;
60060;SDS011;45933;51.336;12.612;2024-03-06T05:56:52;35.23;;;20.53;;
60060;SDS011;45933;51.336;12.612;2024-03-06T05:59:18;34.67;;;20.70;;
60060;SDS011;45933;51.336;12.612;2024-03-06T06:01:44;34.63;;;20.87;;
60060;SDS011;45933;51.336;12.612;2024-03-06T06:04:10;37.33;;;21.23;;
60060;SDS011;45933;51.336;12.612;2024-03-06T06:06:36;34.17;;;21.47;;
60060;SDS011;45933;51.336;12.612;2024-03-06T06:09:01;32.73;;;20.57;;
60060;SDS011;45933;51.336;12.612;2024-03-06T06:11:30;35.07;;;21.27;;
60060;SDS011;45933;51.336;12.612;2024-03-06T06:13:55;34.13;;;20.93;;
60060;SDS011;45933;51.336;12.612;2024-03-06T06:16:20;31.27;;;20.07;;
60060;SDS011;45933;51.336;12.612;2024-03-06T06:18:45;32.47;;;21.40;;
60060;SDS011;45933;51.336;12.612;2024-03-06T06:21:11;32.73;;;20.63;;
60060;SDS011;45933;51.336;12.612;2024-03-06T06:23:36;35.07;;;21.37;;
60060;SDS011;45933;51.336;12.612;2024-03-06T06:26:01;33.27;;;20.83;;
60060;SDS011;45933;51.336;12.612;2024-03-06T06:28:27;31.63;;;20.80;;
60060;SDS011;45933;51.336;12.612;2024-03-06T06:30:52;34.87;;;21.67;;
60060;SDS011;45933;51.336;12.612;2024-03-06T06:33:18;32.83;;;21.40;;
60060;SDS011;45933;51.336;12.612;2024-03-06T06:35:44;33.77;;;20.93;;
60060;SDS011;45933;51.336;12.612;2024-03-06T06:38:09;33.67;;;21.53;;
60060;SDS011;45933;51.336;12.612;2024-03-06T06:40:34;37.37;;;21.10;;
60060;SDS011;45933;51.336;12.612;2024-03-06T06:43:01;37.83;;;21.60;;
60060;SDS011;45933;51.336;12.612;2024-03-06T06:45:26;39.63;;;22.23;;
60060;SDS011;45933;51.336;12.612;2024-03-06T06:47:51;34.83;;;21.73;;
60060;SDS011;45933;51.336;12.612;2024-03-06T06:50:17;35.30;;;22.47;;
60060;SDS011;45933;51.336;12.612;2024-03-06T06:52:42;32.67;;;20.57;;
60060;SDS011;45933;51.336;12.612;2024-03-06T06:55:07;33.87;;;21.77;;
60060;SDS011;45933;51.336;12.612;2024-03-06T06:57:36;35.03;;;21.83;;
60060;SDS011;45933;51.336;12.612;2024-03-06T07:00:02;38.77;;;22.13;;
60060;SDS011;45933;51.336;12.612;2024-03-06T07:02:36;34.37;;;21.27;;
60060;SDS011;45933;51.336;12.612;2024-03-06T07:05:02;34.20;;;22.90;;
60060;SDS011;45933;51.336;12.612;2024-03-06T07:07:29;40.73;;;23.57;;
60060;SDS011;45933;51.336;12.612;2024-03-06T07:09:54;35.53;;;21.80;;
60060;SDS011;45933;51.336;12.612;2024-03-06T07:12:20;41.13;;;22.77;;
60060;SDS011;45933;51.336;12.612;2024-03-06T07:14:45;36.27;;;22.53;;
60060;SDS011;45933;51.336;12.612;2024-03-06T07:17:10;37.60;;;23.20;;
60060;SDS011;45933;51.336;12.612;2024-03-06T07:19:36;36.70;;;22.13;;
60060;SDS011;45933;51.336;12.612;2024-03-06T07:22:01;39.80;;;22.90;;
60060;SDS011;45933;51.336;12.612;2024-03-06T07:24:26;34.30;;;22.03;;
60060;SDS011;45933;51.336;12.612;2024-03-06T07:26:51;37.67;;;23.07;;
60060;SDS011;45933;51.336;12.612;2024-03-06T07:29:17;39.27;;;23.33;;
60060;SDS011;45933;51.336;12.612;2024-03-06T07:31:42;36.57;;;24.13;;
60060;SDS011;45933;51.336;12.612;2024-03-06T07:34:08;35.37;;;23.03;;
60060;SDS011;45933;51.336;12.612;2024-03-06T07:36:34;39.50;;;24.00;;
60060;SDS011;45933;51.336;12.612;2024-03-06T07:39:00;38.27;;;24.17;;
60060;SDS011;45933;51.336;12.612;2024-03-06T07:41:26;39.67;;;23.30;;
60060;SDS011;45933;51.336;12.612;2024-03-06T07:43:51;36.03;;;23.63;;
60060;SDS011;45933;51.336;12.612;2024-03-06T07:46:16;40.60;;;23.90;;
60060;SDS011;45933;51.336;12.612;2024-03-06T07:48:42;38.90;;;23.93;;
60060;SDS011;45933;51.336;12.612;2024-03-06T07:51:09;41.77;;;23.93;;
60060;SDS011;45933;51.336;12.612;2024-03-06T07:53:34;37.17;;;23.40;;
60060;SDS011;45933;51.336;12.612;2024-03-06T07:55:59;40.13;;;24.20;;
60060;SDS011;45933;51.336;12.612;2024-03-06T07:58:25;37.60;;;23.67;;
60060;SDS011;45933;51.336;12.612;2024-03-06T08:00:50;39.40;;;24.30;;
60060;SDS011;45933;51.336;12.612;2024-03-06T08:03:18;39.27;;;24.93;;
60060;SDS011;45933;51.336;12.612;2024-03-06T08:05:43;39.93;;;25.03;;
60060;SDS011;45933;51.336;12.612;2024-03-06T08:08:08;38.80;;;24.53;;
60060;SDS011;45933;51.336;12.612;2024-03-06T08:10:34;38.63;;;23.57;;
60060;SDS011;45933;51.336;12.612;2024-03-06T08:12:59;41.20;;;24.87;;
60060;SDS011;45933;51.336;12.612;2024-03-06T08:15:24;39.03;;;23.77;;
60060;SDS011;45933;51.336;12.612;2024-03-06T08:17:50;37.93;;;25.00;;
60060;SDS011;45933;51.336;12.612;2024-03-06T08:20:16;39.60;;;23.83;;
60060;SDS011;45933;51.336;12.612;2024-03-06T08:22:42;35.63;;;23.33;;
60060;SDS011;45933;51.336;12.612;2024-03-06T08:25:08;43.20;;;25.37;;
60060;SDS011;45933;51.336;12.612;2024-03-06T08:27:35;39.80;;;25.33;;
60060;SDS011;45933;51.336;12.612;2024-03-06T08:30:02;35.50;;;23.80;;
60060;SDS011;45933;51.336;12.612;2024-03-06T08:32:29;36.60;;;23.73;;
60060;SDS011;45933;51.336;12.612;2024-03-06T08:34:56;34.80;;;23.20;;
60060;SDS011;45933;51.336;12.612;2024-03-06T08:37:21;34.43;;;22.90;;
60060;SDS011;45933;51.336;12.612;2024-03-06T08:39:46;35.75;;;23.90;;
60060;SDS011;45933;51.336;12.612;2024-03-06T08:42:13;33.50;;;24.17;;
60060;SDS011;45933;51.336;12.612;2024-03-06T08:44:41;37.05;;;23.52;;
60060;SDS011;45933;51.336;12.612;2024-03-06T08:47:07;33.22;;;23.52;;
60060;SDS011;45933;51.336;12.612;2024-03-06T08:49:32;35.85;;;24.50;;
60060;SDS011;45933;51.336;12.612;2024-03-06T08:51:58;32.38;;;24.60;;
60060;SDS011;45933;51.336;12.612;2024-03-06T08:54:24;33.55;;;23.70;;
60060;SDS011;45933;51.336;12.612;2024-03-06T08:56:49;31.67;;;23.27;;
60060;SDS011;45933;51.336;12.612;2024-03-06T08:59:18;33.13;;;24.80;;
60060;SDS011;45933;51.336;12.612;2024-03-06T09:01:43;36.88;;;25.20;;
60060;SDS011;45933;51.336;12.612;2024-03-06T09:04:08;32.22;;;24.42;;
60060;SDS011;45933;51.336;12.612;2024-03-06T09:06:34;37.28;;;26.15;;
60060;SDS011;45933;51.336;12.612;2024-03-06T09:08:59;35.13;;;25.52;;
60060;SDS011;45933;51.336;12.612;2024-03-06T09:11:24;32.63;;;25.13;;
60060;SDS011;45933;51.336;12.612;2024-03-06T09:13:53;32.88;;;24.48;;
60060;SDS011;45933;51.336;12.612;2024-03-06T09:16:18;29.63;;;24.10;;
60060;SDS011;45933;51.336;12.612;2024-03-06T09:18:43;36.20;;;26.80;;
60060;SDS011;45933;51.336;12.612;2024-03-06T09:21:09;36.65;;;26.40;;
60060;SDS011;45933;51.336;12.612;2024-03-06T09:23:34;36.45;;;26.13;;
60060;SDS011;45933;51.336;12.612;2024-03-06T09:25:59;34.30;;;26.63;;
60060;SDS011;45933;51.336;12.612;2024-03-06T09:28:24;35.42;;;28.08;;
60060;SDS011;45933;51.336;12.612;2024-03-06T09:30:50;37.60;;;27.95;;
60060;SDS011;45933;51.336;12.612;2024-03-06T09:33:16;39.28;;;29.38;;
60060;SDS011;45933;51.336;12.612;2024-03-06T09:35:41;37.78;;;29.05;;
60060;SDS011;45933;51.336;12.612;2024-03-06T09:38:10;31.45;;;25.38;;
60060;SDS011;45933;51.336;12.612;2024-03-06T09:40:38;33.83;;;27.08;;
60060;SDS011;45933;51.336;12.612;2024-03-06T09:43:05;33.15;;;26.50;;
60060;SDS011;45933;51.336;12.612;2024-03-06T09:45:31;33.95;;;26.02;;
60060;SDS011;45933;51.336;12.612;2024-03-06T09:47:57;33.10;;;26.75;;
60060;SDS011;45933;51.336;12.612;2024-03-06T09:50:23;36.28;;;28.35;;
60060;SDS011;45933;51.336;12.612;2024-03-06T09:52:52;34.45;;;27.60;;
60060;SDS011;45933;51.336;12.612;2024-03-06T09:55:19;37.67;;;26.80;;
60060;SDS011;45933;51.336;12.612;2024-03-06T09:57:45;37.95;;;27.98;;
60060;SDS011;45933;51.336;12.612;2024-03-06T10:00:10;33.47;;;26.65;;
60060;SDS011;45933;51.336;12.612;2024-03-06T10:02:38;33.72;;;27.52;;
60060;SDS011;45933;51.336;12.612;2024-03-06T10:05:04;33.63;;;28.30;;
60060;SDS011;45933;51.336;12.612;2024-03-06T10:07:30;34.90;;;27.45;;
60060;SDS011;45933;51.336;12.612;2024-03-06T10:09:56;32.50;;;28.02;;
60060;SDS011;45933;51.336;12.612;2024-03-06T10:12:22;33.72;;;27.08;;
60060;SDS011;45933;51.336;12.612;2024-03-06T10:14:49;34.75;;;28.20;;
60060;SDS011;45933;51.336;12.612;2024-03-06T10:17:18;34.78;;;27.95;;
60060;SDS011;45933;51.336;12.612;2024-03-06T10:19:48;34.50;;;27.33;;
60060;SDS011;45933;51.336;12.612;2024-03-06T10:22:16;34.63;;;27.15;;
60060;SDS011;45933;51.336;12.612;2024-03-06T10:24:42;36.78;;;29.00;;
60060;SDS011;45933;51.336;12.612;2024-03-06T10:27:07;36.42;;;28.92;;
60060;SDS011;45933;51.336;12.612;2024-03-06T10:29:32;33.03;;;27.08;;
60060;SDS011;45933;51.336;12.612;2024-03-06T10:31:58;31.52;;;26.75;;
60060;SDS011;45933;51.336;12.612;2024-03-06T10:34:25;33.13;;;26.95;;
60060;SDS011;45933;51.336;12.612;2024-03-06T10:36:55;30.67;;;26.55;;
60060;SDS011;45933;51.336;12.612;2024-03-06T10:39:21;31.35;;;26.33;;
60060;SDS011;45933;51.336;12.612;2024-03-06T10:41:51;35.85;;;26.73;;
60060;SDS011;45933;51.336;12.612;2024-03-06T10:44:23;32.92;;;26.73;;
60060;SDS011;45933;51.336;12.612;2024-03-06T10:47:00;32.22;;;25.70;;
60060;SDS011;45933;51.336;12.612;2024-03-06T10:49:26;28.98;;;25.48;;
60060;SDS011;45933;51.336;12.612;2024-03-06T10:52:03;29.75;;;26.35;;
60060;SDS011;45933;51.336;12.612;2024-03-06T10:54:32;28.30;;;24.77;;
60060;SDS011;45933;51.336;12.612;2024-03-06T10:57:00;30.35;;;24.40;;
60060;SDS011;45933;51.336;12.612;2024-03-06T10:59:26;26.15;;;23.30;;
60060;SDS011;45933;51.336;12.612;2024-03-06T11:01:53;29.27;;;24.38;;
60060;SDS011;45933;51.336;12.612;2024-03-06T11:04:19;29.75;;;24.83;;
60060;SDS011;45933;51.336;12.612;2024-03-06T11:06:45;30.65;;;24.80;;
60060;SDS011;45933;51.336;12.612;2024-03-06T11:09:10;29.38;;;24.27;;
60060;SDS011;45933;51.336;12.612;2024-03-06T11:11:49;29.58;;;24.23;;
60060;SDS011;45933;51.336;12.612;2024-03-06T11:14:16;30.35;;;25.27;;
60060;SDS011;45933;51.336;12.612;2024-03-06T11:19:30;30.15;;;25.45;;
60060;SDS011;45933;51.336;12.612;2024-03-06T11:21:56;27.60;;;22.70;;
60060;SDS011;45933;51.336;12.612;2024-03-06T11:24:22;30.13;;;23.77;;
60060;SDS011;45933;51.336;12.612;2024-03-06T11:27:10;29.45;;;23.58;;
60060;SDS011;45933;51.336;12.612;2024-03-06T11:32:57;25.60;;;22.13;;
60060;SDS011;45933;51.336;12.612;2024-03-06T11:35:24;26.00;;;22.13;;
60060;SDS011;45933;51.336;12.612;2024-03-06T11:37:49;26.75;;;23.65;;
60060;SDS011;45933;51.336;12.612;2024-03-06T11:40:18;27.42;;;24.40;;
60060;SDS011;45933;51.336;12.612;2024-03-06T11:42:49;27.13;;;22.25;;
60060;SDS011;45933;51.336;12.612;2024-03-06T11:45:19;25.73;;;22.95;;
60060;SDS011;45933;51.336;12.612;2024-03-06T11:47:56;26.42;;;23.35;;
60060;SDS011;45933;51.336;12.612;2024-03-06T11:50:22;28.17;;;22.90;;
60060;SDS011;45933;51.336;12.612;2024-03-06T11:52:49;28.73;;;23.15;;
60060;SDS011;45933;51.336;12.612;2024-03-06T11:55:14;27.75;;;22.73;;
60060;SDS011;45933;51.336;12.612;2024-03-06T11:57:40;27.10;;;21.63;;
60060;SDS011;45933;51.336;12.612;2024-03-06T12:00:06;24.45;;;21.08;;
60060;SDS011;45933;51.336;12.612;2024-03-06T12:02:32;25.10;;;20.60;;
60060;SDS011;45933;51.336;12.612;2024-03-06T12:05:01;23.17;;;18.95;;
60060;SDS011;45933;51.336;12.612;2024-03-06T12:07:28;26.83;;;18.83;;
60060;SDS011;45933;51.336;12.612;2024-03-06T12:09:53;23.42;;;19.75;;
60060;SDS011;45933;51.336;12.612;2024-03-06T12:12:18;25.05;;;19.60;;
60060;SDS011;45933;51.336;12.612;2024-03-06T12:14:44;23.25;;;18.38;;
60060;SDS011;45933;51.336;12.612;2024-03-06T12:17:21;22.98;;;18.10;;
60060;SDS011;45933;51.336;12.612;2024-03-06T12:19:47;22.30;;;18.05;;
60060;SDS011;45933;51.336;12.612;2024-03-06T12:22:13;24.20;;;16.48;;
60060;SDS011;45933;51.336;12.612;2024-03-06T12:24:40;18.20;;;15.55;;
60060;SDS011;45933;51.336;12.612;2024-03-06T12:27:06;20.10;;;16.40;;
60060;SDS011;45933;51.336;12.612;2024-03-06T12:29:32;18.85;;;16.33;;
60060;SDS011;45933;51.336;12.612;2024-03-06T12:31:59;20.95;;;17.70;;
60060;SDS011;45933;51.336;12.612;2024-03-06T12:34:25;20.17;;;17.52;;
60060;SDS011;45933;51.336;12.612;2024-03-06T12:36:51;22.27;;;19.88;;
60060;SDS011;45933;51.336;12.612;2024-03-06T12:39:16;22.15;;;19.30;;
60060;SDS011;45933;51.336;12.612;2024-03-06T12:41:46;27.65;;;22.42;;
60060;SDS011;45933;51.336;12.612;2024-03-06T12:44:11;25.02;;;22.00;;
60060;SDS011;45933;51.336;12.612;2024-03-06T12:46:36;26.88;;;20.77;;
60060;SDS011;45933;51.336;12.612;2024-03-06T12:49:02;26.20;;;20.33;;
60060;SDS011;45933;51.336;12.612;2024-03-06T12:51:27;24.27;;;19.75;;
60060;SDS011;45933;51.336;12.612;2024-03-06T12:53:52;24.67;;;18.38;;
60060;SDS011;45933;51.336;12.612;2024-03-06T12:56:18;24.35;;;18.20;;
60060;SDS011;45933;51.336;12.612;2024-03-06T12:58:44;20.05;;;16.73;;
60060;SDS011;45933;51.336;12.612;2024-03-06T13:01:09;23.92;;;18.10;;
60060;SDS011;45933;51.336;12.612;2024-03-06T13:03:35;23.25;;;20.40;;
60060;SDS011;45933;51.336;12.612;2024-03-06T13:06:01;22.83;;;18.92;;
60060;SDS011;45933;51.336;12.612;2024-03-06T13:08:27;24.58;;;18.25;;
60060;SDS011;45933;51.336;12.612;2024-03-06T13:10:52;22.20;;;17.25;;
60060;SDS011;45933;51.336;12.612;2024-03-06T13:13:17;18.73;;;15.90;;
60060;SDS011;45933;51.336;12.612;2024-03-06T13:15:43;23.38;;;16.55;;
60060;SDS011;45933;51.336;12.612;2024-03-06T13:18:09;20.02;;;15.25;;
60060;SDS011;45933;51.336;12.612;2024-03-06T13:20:34;19.25;;;16.05;;
60060;SDS011;45933;51.336;12.612;2024-03-06T13:23:00;19.23;;;15.43;;
60060;SDS011;45933;51.336;12.612;2024-03-06T13:25:25;20.65;;;15.25;;
60060;SDS011;45933;51.336;12.612;2024-03-06T13:27:51;19.10;;;16.10;;
60060;SDS011;45933;51.336;12.612;2024-03-06T13:30:19;19.75;;;15.15;;
60060;SDS011;45933;51.336;12.612;2024-03-06T13:32:45;17.05;;;14.98;;
60060;SDS011;45933;51.336;12.612;2024-03-06T13:35:11;18.52;;;14.70;;
60060;SDS011;45933;51.336;12.612;2024-03-06T13:37:41;17.13;;;13.57;;
60060;SDS011;45933;51.336;12.612;2024-03-06T13:40:07;15.52;;;12.73;;
60060;SDS011;45933;51.336;12.612;2024-03-06T13:42:34;16.75;;;13.20;;
60060;SDS011;45933;51.336;12.612;2024-03-06T13:45:00;15.27;;;12.15;;
60060;SDS011;45933;51.336;12.612;2024-03-06T13:47:25;16.23;;;12.98;;
60060;SDS011;45933;51.336;12.612;2024-03-06T13:49:51;16.77;;;13.88;;
60060;SDS011;45933;51.336;12.612;2024-03-06T13:52:16;18.45;;;14.23;;
60060;SDS011;45933;51.336;12.612;2024-03-06T13:54:45;16.77;;;13.70;;
60060;SDS011;45933;51.336;12.612;2024-03-06T13:57:12;17.48;;;12.80;;
60060;SDS011;45933;51.336;12.612;2024-03-06T13:59:37;17.08;;;12.27;;
60060;SDS011;45933;51.336;12.612;2024-03-06T14:02:03;16.15;;;12.57;;
60060;SDS011;45933;51.336;12.612;2024-03-06T14:04:29;16.45;;;12.75;;
60060;SDS011;45933;51.336;12.612;2024-03-06T14:06:55;16.80;;;13.10;;
60060;SDS011;45933;51.336;12.612;2024-03-06T14:09:22;16.48;;;12.20;;